Time;durP1;ratioP1;P1;durP2;ratioP2;P2;SDS_P1;SDS_P2;PMS_P1;PMS_P2;Temp;Humidity;BMP_temperature;BMP_pressure;BME280_temperature;BME280_humidity;BME280_pressure;Samples;Min_cycle;Max_cycle;Signal;HPM_P1;HPM_P2
2022/03/23 00:01:04;;;;;;;35.17;20.33;;;7.10;99.90;;;;;;5035543;28;20045;-74
2022/03/23 00:03:30;;;;;;;37.90;20.35;;;7.00;99.90;;;;;;5035839;28;20049;-74
2022/03/23 00:05:55;;;;;;;36.72;19.95;;;7.00;99.90;;;;;;5035802;28;20488;-75
2022/03/23 00:08:21;;;;;;;36.00;19.92;;;6.90;99.90;;;;;;5035796;28;20501;-74
2022/03/23 00:10:47;;;;;;;35.58;20.25;;;6.90;99.90;;;;;;5035677;28;20057;-75
2022/03/23 00:13:13;;;;;;;35.33;20.25;;;6.90;99.90;;;;;;5035648;28;20534;-75
2022/03/23 00:15:40;;;;;;;38.25;20.77;;;6.80;99.90;;;;;;5035346;28;20128;-74
2022/03/23 00:18:06;;;;;;;37.78;20.00;;;6.80;99.90;;;;;;5035230;28;20057;-74
2022/03/23 00:20:32;;;;;;;35.85;20.05;;;6.70;99.90;;;;;;5035541;28;20057;-74
2022/03/23 00:22:58;;;;;;;38.88;21.20;;;6.70;99.90;;;;;;5035894;28;20049;-74
2022/03/23 00:25:24;;;;;;;42.28;21.52;;;6.70;99.90;;;;;;5035413;28;20499;-75
2022/03/23 00:27:49;;;;;;;36.28;20.48;;;6.70;99.90;;;;;;5035318;28;20040;-74
2022/03/23 00:30:15;;;;;;;36.25;20.33;;;6.70;99.90;;;;;;5035441;28;20420;-74
2022/03/23 00:32:40;;;;;;;34.65;20.63;;;6.70;99.90;;;;;;5035294;28;20128;-75
2022/03/23 00:35:06;;;;;;;38.47;21.40;;;6.60;99.90;;;;;;5035003;28;20049;-75
2022/03/23 00:37:32;;;;;;;40.97;20.13;;;6.50;99.90;;;;;;5035104;28;20091;-74
2022/03/23 00:39:57;;;;;;;35.92;20.30;;;6.50;99.90;;;;;;5035528;28;20393;-74
2022/03/23 00:42:23;;;;;;;36.33;19.98;;;6.50;99.90;;;;;;5017693;28;20041;-74
2022/03/23 00:44:51;;;;;;;38.63;20.63;;;6.50;99.90;;;;;;5035030;28;20045;-74
2022/03/23 00:47:17;;;;;;;40.92;20.60;;;6.50;99.90;;;;;;5035012;28;20077;-74
2022/03/23 00:49:43;;;;;;;36.45;20.13;;;6.50;99.90;;;;;;5034620;28;20088;-73
2022/03/23 00:52:10;;;;;;;35.90;19.85;;;6.40;99.90;;;;;;5035367;28;20085;-74
2022/03/23 00:54:36;;;;;;;;;;;6.40;99.90;;;;;;5035202;28;20120;-75
2022/03/23 00:57:03;;;;;;;38.60;18.50;;;6.40;99.90;;;;;;5034730;28;20024;-75
2022/03/23 00:59:28;;;;;;;41.22;21.20;;;6.30;99.90;;;;;;5034623;28;20041;-73
2022/03/23 01:01:54;;;;;;;37.15;20.33;;;6.30;99.90;;;;;;5034694;28;20095;-74
2022/03/23 01:04:19;;;;;;;34.03;19.23;;;6.30;99.90;;;;;;5034588;28;20041;-74
2022/03/23 01:06:46;;;;;;;39.17;20.27;;;6.30;99.90;;;;;;5034645;28;20127;-73
2022/03/23 01:09:12;;;;;;;43.92;21.13;;;6.30;99.90;;;;;;5034595;28;20053;-74
2022/03/23 01:11:39;;;;;;;42.72;21.50;;;6.20;99.90;;;;;;5034625;28;20049;-73
2022/03/23 01:14:06;;;;;;;37.38;21.35;;;6.20;99.90;;;;;;5034533;28;20092;-74
2022/03/23 01:16:31;;;;;;;;;;;6.30;99.90;;;;;;5034784;28;20084;-74
2022/03/23 01:18:57;;;;;;;36.63;19.33;;;6.20;99.90;;;;;;5034356;28;20014;-73
2022/03/23 01:21:22;;;;;;;38.83;20.92;;;6.20;99.90;;;;;;5033922;28;20058;-73
2022/03/23 01:23:48;;;;;;;37.42;20.08;;;6.20;99.90;;;;;;5034265;28;20054;-73
2022/03/23 01:26:14;;;;;;;44.45;20.40;;;6.10;99.90;;;;;;5034099;28;20042;-73
2022/03/23 01:28:39;;;;;;;35.30;19.95;;;6.10;99.90;;;;;;5034178;28;20049;-72
2022/03/23 01:31:05;;;;;;;38.30;19.30;;;6.10;99.90;;;;;;5033768;28;20049;-74
2022/03/23 01:33:32;;;;;;;39.30;19.67;;;6.10;99.90;;;;;;5034097;28;20575;-73
2022/03/23 01:35:58;;;;;;;38.05;19.95;;;6.10;99.90;;;;;;5034110;28;20085;-74
2022/03/23 01:38:23;;;;;;;39.58;20.70;;;6.00;99.90;;;;;;5033847;28;20078;-73
2022/03/23 01:40:49;;;;;;;37.30;21.25;;;5.90;99.90;;;;;;5034058;28;20041;-74
2022/03/23 01:43:14;;;;;;;36.67;20.73;;;5.90;99.90;;;;;;5034157;28;20045;-73
2022/03/23 01:45:40;;;;;;;36.72;19.92;;;5.90;99.90;;;;;;5034004;28;20045;-73
2022/03/23 01:48:05;;;;;;;39.95;20.38;;;5.90;99.90;;;;;;5033788;28;20416;-73
2022/03/23 01:50:31;;;;;;;37.08;20.48;;;5.90;99.90;;;;;;5033941;28;20091;-74
2022/03/23 01:52:57;;;;;;;41.65;20.65;;;5.80;99.90;;;;;;5033851;28;20072;-73
2022/03/23 01:55:22;;;;;;;38.15;20.40;;;5.70;99.90;;;;;;5034049;28;20508;-74
2022/03/23 01:57:51;;;;;;;41.92;19.33;;;5.70;99.90;;;;;;5033897;28;20046;-74
2022/03/23 02:00:18;;;;;;;40.80;20.65;;;5.70;99.90;;;;;;5033952;28;20068;-73
2022/03/23 02:02:44;;;;;;;37.50;20.70;;;5.70;99.90;;;;;;5033717;28;20056;-74
2022/03/23 02:05:11;;;;;;;38.83;19.52;;;5.70;99.90;;;;;;5033725;28;20285;-74
2022/03/23 02:07:37;;;;;;;;;;;5.60;99.90;;;;;;5034099;28;20098;-74
2022/03/23 02:10:07;;;;;;;37.53;18.77;;;5.60;99.90;;;;;;5032981;28;19921;-74
2022/03/23 02:12:32;;;;;;;34.72;19.27;;;5.50;99.90;;;;;;5033728;28;20075;-74
2022/03/23 02:15:00;;;;;;;42.38;21.02;;;5.50;99.90;;;;;;5033677;28;20046;-73
2022/03/23 02:17:26;;;;;;;40.50;20.17;;;5.50;99.90;;;;;;5033547;28;20127;-74
2022/03/23 02:19:52;;;;;;;39.63;20.38;;;5.50;99.90;;;;;;5033495;28;20489;-74
2022/03/23 02:22:18;;;;;;;39.10;20.75;;;5.50;99.90;;;;;;5034004;28;20042;-74
2022/03/23 02:24:46;;;;;;;38.30;20.77;;;5.50;99.90;;;;;;5033501;28;20042;-73
2022/03/23 02:27:13;;;;;;;40.13;22.08;;;5.50;99.90;;;;;;5033421;28;20037;-73
2022/03/23 02:29:38;;;;;;;39.67;20.30;;;5.40;99.90;;;;;;5033742;28;20057;-74
2022/03/23 02:32:05;;;;;;;40.20;21.38;;;5.40;99.90;;;;;;5033256;28;20469;-73
2022/03/23 02:34:31;;;;;;;40.00;19.90;;;5.40;99.90;;;;;;5033881;28;20057;-74
2022/03/23 02:36:58;;;;;;;38.77;20.43;;;5.30;99.90;;;;;;5033317;28;20048;-74
2022/03/23 02:39:25;;;;;;;;;;;5.30;99.90;;;;;;5033933;28;20326;-74
2022/03/23 02:41:52;;;;;;;40.42;20.17;;;5.30;99.90;;;;;;5033372;28;19983;-74
2022/03/23 02:44:18;;;;;;;;;;;5.30;99.90;;;;;;5033685;28;20096;-74
2022/03/23 02:46:43;;;;;;;36.35;20.25;;;5.20;99.90;;;;;;5033132;28;20020;-74
2022/03/23 02:49:09;;;;;;;37.80;20.17;;;5.20;99.90;;;;;;5033243;28;20489;-73
2022/03/23 02:51:36;;;;;;;37.17;20.15;;;5.10;99.90;;;;;;5033196;28;20045;-74
2022/03/23 03:02:39;;;;;;;42.58;21.95;;;5.00;99.90;;;;;;5033169;28;20046;-73
2022/03/23 03:05:07;;;;;;;43.58;22.92;;;5.00;99.90;;;;;;5033052;28;20056;-75
2022/03/23 03:10:21;;;;;;;41.53;22.90;;;4.90;99.90;;;;;;5033052;28;20401;-74
2022/03/23 03:12:48;;;;;;;43.50;21.42;;;4.90;99.90;;;;;;5032987;28;20049;-74
2022/03/23 03:15:14;;;;;;;42.67;21.27;;;4.90;99.90;;;;;;5033009;28;20051;-74
2022/03/23 03:17:41;;;;;;;38.67;21.55;;;4.80;99.90;;;;;;5032778;28;20037;-74
2022/03/23 03:20:07;;;;;;;46.25;22.60;;;4.80;99.90;;;;;;5033010;28;20049;-73
2022/03/23 03:22:34;;;;;;;42.67;21.00;;;4.80;99.90;;;;;;5034907;28;20099;-74
2022/03/23 03:25:00;;;;;;;37.17;20.42;;;4.70;99.90;;;;;;5036394;28;20345;-74
2022/03/23 03:27:26;;;;;;;42.50;22.47;;;4.70;99.90;;;;;;5036609;28;20045;-74
2022/03/23 03:29:52;;;;;;;39.47;22.17;;;4.60;99.90;;;;;;5036214;28;20072;-74
2022/03/23 03:32:17;;;;;;;42.75;22.05;;;4.60;99.90;;;;;;5036612;28;20076;-74
2022/03/23 03:34:43;;;;;;;46.38;22.85;;;4.60;99.90;;;;;;5036373;28;20045;-74
2022/03/23 03:37:09;;;;;;;40.47;20.70;;;4.60;99.90;;;;;;5036049;28;20047;-73
2022/03/23 03:39:34;;;;;;;44.95;22.45;;;4.60;99.90;;;;;;5036429;28;20045;-74
2022/03/23 03:42:01;;;;;;;44.88;22.63;;;4.60;99.90;;;;;;5036244;28;20041;-74
2022/03/23 03:44:27;;;;;;;46.55;21.65;;;4.60;99.90;;;;;;5036287;28;20049;-73
2022/03/23 03:46:52;;;;;;;47.28;22.88;;;4.60;99.90;;;;;;5036234;28;20057;-74
2022/03/23 03:49:18;;;;;;;47.83;24.17;;;4.60;99.90;;;;;;5036007;28;20401;-74
2022/03/23 03:51:44;;;;;;;45.28;23.63;;;4.60;99.90;;;;;;5035966;28;20045;-74
2022/03/23 03:54:11;;;;;;;41.85;21.77;;;4.50;99.90;;;;;;5035896;28;20048;-74
2022/03/23 03:56:36;;;;;;;39.67;20.75;;;4.50;99.90;;;;;;5035984;28;20053;-74
2022/03/23 03:59:02;;;;;;;48.28;22.67;;;4.50;99.90;;;;;;5036141;28;20134;-74
2022/03/23 04:01:28;;;;;;;36.22;20.00;;;4.50;99.90;;;;;;5035842;28;20164;-74
2022/03/23 04:03:53;;;;;;;40.53;21.52;;;4.50;99.90;;;;;;5035957;28;20067;-74
2022/03/23 04:06:20;;;;;;;41.92;20.55;;;4.50;99.90;;;;;;5035534;28;20082;-74
2022/03/23 04:08:46;;;;;;;44.05;22.23;;;4.40;99.90;;;;;;5036130;28;20045;-74
2022/03/23 04:11:12;;;;;;;43.03;21.88;;;4.40;99.90;;;;;;5035722;28;20041;-73
2022/03/23 04:13:37;;;;;;;36.75;20.35;;;4.40;99.90;;;;;;5035739;28;20049;-75
2022/03/23 04:16:03;;;;;;;43.90;21.73;;;4.30;99.90;;;;;;5035743;28;20049;-74
2022/03/23 04:18:29;;;;;;;40.20;20.60;;;4.30;99.90;;;;;;5035836;28;20045;-74
2022/03/23 04:20:54;;;;;;;44.83;22.30;;;4.30;99.90;;;;;;5035626;28;20107;-75
2022/03/23 04:23:20;;;;;;;41.83;22.40;;;4.30;99.90;;;;;;5018333;28;20053;-75
2022/03/23 04:25:46;;;;;;;45.67;22.50;;;4.30;99.90;;;;;;5035903;28;20055;-75
2022/03/23 04:28:12;;;;;;;42.65;21.83;;;4.20;99.90;;;;;;5035395;28;20136;-75
2022/03/23 04:30:37;;;;;;;45.83;20.85;;;4.20;99.90;;;;;;5035631;28;20475;-74
2022/03/23 04:33:03;;;;;;;40.42;21.45;;;4.20;99.90;;;;;;5034832;28;20053;-75
2022/03/23 04:35:29;;;;;;;42.83;22.05;;;4.20;99.90;;;;;;5035252;28;20050;-75
2022/03/23 04:37:55;;;;;;;46.58;23.05;;;4.10;99.90;;;;;;5035154;28;20033;-74
2022/03/23 04:40:22;;;;;;;39.90;21.17;;;4.10;99.90;;;;;;5034954;28;20049;-74
2022/03/23 04:42:49;;;;;;;41.47;22.42;;;4.10;99.90;;;;;;5035170;28;20062;-75
2022/03/23 04:45:15;;;;;;;43.60;23.02;;;4.10;99.90;;;;;;5035169;28;20045;-75
2022/03/23 04:47:41;;;;;;;45.10;22.30;;;4.00;99.90;;;;;;5034806;28;20512;-76
2022/03/23 04:50:09;;;;;;;43.30;22.48;;;4.10;99.90;;;;;;5034759;28;20168;-75
2022/03/23 04:52:37;;;;;;;41.50;21.90;;;4.00;99.90;;;;;;5035180;28;20409;-76
2022/03/23 04:55:03;;;;;;;46.35;23.90;;;4.00;99.90;;;;;;5035141;28;20431;-75
2022/03/23 04:57:29;;;;;;;46.50;23.90;;;4.00;99.90;;;;;;5034570;28;20496;-74
2022/03/23 04:59:55;;;;;;;49.85;24.58;;;3.90;99.90;;;;;;5034842;28;20052;-74
2022/03/23 05:02:20;;;;;;;43.17;23.33;;;3.90;99.90;;;;;;5034598;28;20400;-75
2022/03/23 05:04:46;;;;;;;41.30;21.95;;;3.90;99.90;;;;;;5034731;28;20041;-75
2022/03/23 05:07:12;;;;;;;46.33;23.88;;;3.80;99.90;;;;;;5034796;28;20115;-75
2022/03/23 05:09:38;;;;;;;48.15;23.40;;;3.80;99.90;;;;;;5034743;28;20042;-74
2022/03/23 05:12:04;;;;;;;45.53;23.73;;;3.80;99.90;;;;;;5034768;28;20158;-75
2022/03/23 05:14:30;;;;;;;46.92;23.63;;;3.80;99.90;;;;;;5016881;28;20436;-75
2022/03/23 05:16:55;;;;;;;47.47;23.55;;;3.80;99.90;;;;;;5034210;28;20045;-76
2022/03/23 05:19:21;;;;;;;45.05;24.02;;;3.70;99.90;;;;;;5034440;28;20049;-75
2022/03/23 05:21:47;;;;;;;46.72;23.02;;;3.70;99.90;;;;;;5034545;28;20045;-75
2022/03/23 05:24:13;;;;;;;49.27;23.97;;;3.70;99.90;;;;;;5034745;28;20045;-75
2022/03/23 05:26:38;;;;;;;51.05;25.05;;;3.70;99.90;;;;;;5034664;28;20496;-75
2022/03/23 05:29:04;;;;;;;53.30;24.65;;;3.70;99.90;;;;;;5034280;28;20405;-75
2022/03/23 05:31:29;;;;;;;52.75;25.20;;;3.70;99.90;;;;;;5034213;28;20049;-75
2022/03/23 05:33:55;;;;;;;48.55;25.65;;;3.60;99.90;;;;;;5034217;28;20049;-75
2022/03/23 05:36:20;;;;;;;53.53;27.02;;;3.60;99.90;;;;;;5034050;28;20041;-74
2022/03/23 05:38:46;;;;;;;54.67;25.83;;;3.30;99.90;;;;;;5034121;28;20067;-76
2022/03/23 05:41:11;;;;;;;48.90;26.13;;;3.70;99.90;;;;;;5034088;28;20050;-74
2022/03/23 05:43:37;;;;;;;56.33;25.65;;;3.70;99.90;;;;;;5033845;28;20077;-75
2022/03/23 05:46:03;;;;;;;50.45;25.00;;;3.60;99.90;;;;;;5033536;28;20064;-76
2022/03/23 05:48:28;;;;;;;51.30;24.33;;;3.60;99.90;;;;;;5016375;28;20045;-77
2022/03/23 05:50:54;;;;;;;53.67;25.92;;;3.70;99.90;;;;;;5016065;28;20107;-76
2022/03/23 05:53:19;;;;;;;48.63;26.38;;;3.60;99.90;;;;;;5033923;28;20128;-77
2022/03/23 05:55:45;;;;;;;49.25;26.35;;;3.60;99.90;;;;;;5016214;28;20042;-76
2022/03/23 05:58:10;;;;;;;50.72;25.45;;;3.70;99.90;;;;;;5033826;28;20388;-77
2022/03/23 06:00:36;;;;;;;52.53;26.02;;;3.70;99.90;;;;;;5033864;28;20049;-76
2022/03/23 06:03:02;;;;;;;51.20;25.00;;;3.70;99.90;;;;;;5033866;28;20057;-75
2022/03/23 06:05:27;;;;;;;56.60;25.88;;;3.70;99.90;;;;;;5033771;28;20496;-75
2022/03/23 06:07:53;;;;;;;53.65;26.80;;;3.80;99.90;;;;;;5034148;28;20487;-75
2022/03/23 06:10:18;;;;;;;54.55;25.70;;;3.80;99.90;;;;;;5034078;28;20053;-75
2022/03/23 06:12:44;;;;;;;49.20;25.35;;;3.90;99.90;;;;;;5033763;28;20052;-76
2022/03/23 06:15:11;;;;;;;50.97;24.60;;;3.90;99.90;;;;;;5033466;28;20056;-75
2022/03/23 06:17:37;;;;;;;57.78;27.80;;;3.90;99.90;;;;;;5033291;28;20045;-75
2022/03/23 06:20:03;;;;;;;47.60;23.17;;;4.00;99.90;;;;;;5033441;28;20045;-74
2022/03/23 06:22:29;;;;;;;45.53;23.63;;;3.90;99.90;;;;;;5033559;28;20049;-75
2022/03/23 06:24:55;;;;;;;50.47;24.67;;;4.00;99.90;;;;;;5033547;28;20485;-75
2022/03/23 06:27:20;;;;;;;48.42;25.52;;;4.00;99.90;;;;;;5033306;28;20037;-76
2022/03/23 06:29:46;;;;;;;51.17;25.23;;;4.00;99.90;;;;;;5033023;28;20065;-75
2022/03/23 06:32:12;;;;;;;50.38;25.38;;;4.10;99.90;;;;;;5033423;28;20060;-75
2022/03/23 06:34:38;;;;;;;46.70;24.95;;;4.20;99.90;;;;;;5033280;28;20071;-75
2022/03/23 06:37:04;;;;;;;51.03;25.88;;;4.20;99.90;;;;;;5033347;28;20033;-75
2022/03/23 06:39:31;;;;;;;49.35;26.42;;;4.30;99.90;;;;;;5033251;28;20428;-75
2022/03/23 06:41:57;;;;;;;;;;;4.40;99.90;;;;;;5033712;28;20041;-74
2022/03/23 06:44:22;;;;;;;44.28;23.17;;;4.50;99.90;;;;;;5033284;28;19975;-75
2022/03/23 06:46:48;;;;;;;49.55;24.98;;;4.50;99.90;;;;;;5033437;28;20124;-76
2022/03/23 06:49:14;;;;;;;48.95;24.65;;;4.60;99.90;;;;;;5033210;28;20473;-73
2022/03/23 06:51:39;;;;;;;46.25;22.77;;;4.70;99.90;;;;;;5033270;28;20049;-74
2022/03/23 06:54:05;;;;;;;46.65;23.65;;;4.90;99.90;;;;;;5033168;28;20041;-75
2022/03/23 06:56:31;;;;;;;47.88;22.95;;;5.10;99.90;;;;;;5035666;28;20045;-73
2022/03/23 06:58:56;;;;;;;45.92;24.05;;;5.20;99.90;;;;;;5037337;28;20037;-75
2022/03/23 07:01:22;;;;;;;46.10;23.70;;;5.40;99.90;;;;;;5036965;28;20122;-74
2022/03/23 07:03:50;;;;;;;41.72;23.08;;;5.50;99.90;;;;;;5036711;28;20046;-74
2022/03/23 07:06:19;;;;;;;43.08;22.00;;;5.70;99.90;;;;;;5036977;28;20159;-74
2022/03/23 07:11:29;;;;;;;39.22;21.38;;;6.20;99.90;;;;;;5037529;28;20496;-74
2022/03/23 07:13:55;;;;;;;36.77;19.83;;;6.40;99.90;;;;;;5036976;28;20052;-74
2022/03/23 07:16:21;;;;;;;37.53;20.03;;;6.60;99.90;;;;;;5036711;28;20766;-75
2022/03/23 07:18:47;;;;;;;31.50;19.73;;;6.90;99.90;;;;;;5036702;28;20276;-75
2022/03/23 07:21:12;;;;;;;30.98;18.67;;;7.10;99.90;;;;;;5037159;28;20052;-75
2022/03/23 07:23:38;;;;;;;36.30;17.83;;;7.40;99.90;;;;;;5036738;28;20053;-75
2022/03/23 07:26:04;;;;;;;28.35;16.90;;;7.60;99.90;;;;;;5036844;28;20061;-75
2022/03/23 07:28:31;;;;;;;28.55;16.45;;;7.90;99.90;;;;;;5036366;28;20140;-76
2022/03/23 07:30:57;;;;;;;34.53;17.42;;;8.10;99.90;;;;;;5036451;28;20056;-74
2022/03/23 07:33:22;;;;;;;32.17;17.33;;;8.30;99.90;;;;;;5037102;28;20400;-74
2022/03/23 07:35:48;;;;;;;28.33;16.88;;;8.50;99.90;;;;;;5036650;28;20076;-75
2022/03/23 07:38:14;;;;;;;29.80;17.73;;;8.70;99.90;;;;;;5036691;28;20037;-74
2022/03/23 07:40:41;;;;;;;29.20;16.57;;;8.90;99.90;;;;;;5036465;28;20103;-75
2022/03/23 07:43:07;;;;;;;27.70;15.25;;;9.10;99.90;;;;;;5036330;28;20042;-74
2022/03/23 07:45:32;;;;;;;28.15;15.07;;;9.20;99.90;;;;;;5036308;28;20073;-74
2022/03/23 07:47:58;;;;;;;24.38;15.45;;;9.40;99.90;;;;;;5036839;28;20088;-74
2022/03/23 07:50:24;;;;;;;26.50;15.75;;;9.60;99.90;;;;;;5036054;28;20068;-79
2022/03/23 07:52:49;;;;;;;24.98;15.13;;;9.70;99.90;;;;;;5002610;28;20053;-75
2022/03/23 07:55:15;;;;;;;28.95;15.65;;;9.90;99.90;;;;;;5018388;28;20053;-75
2022/03/23 07:57:41;;;;;;;24.90;14.90;;;10.10;99.90;;;;;;5036035;28;20037;-75
2022/03/23 08:00:07;;;;;;;31.33;16.08;;;10.20;99.90;;;;;;5036198;28;20053;-74
2022/03/23 08:02:33;;;;;;;23.63;15.57;;;10.40;99.90;;;;;;5035956;28;20049;-75
2022/03/23 08:04:59;;;;;;;24.02;14.80;;;10.50;99.90;;;;;;5035315;28;20643;-75
2022/03/23 08:07:24;;;;;;;27.50;15.05;;;10.70;99.90;;;;;;5015858;28;20041;-75
2022/03/23 08:09:50;;;;;;;26.50;15.48;;;10.70;99.90;;;;;;5035291;28;20049;-74
2022/03/23 08:12:19;;;;;;;23.55;15.50;;;10.90;99.90;;;;;;5035965;28;20052;-74
2022/03/23 08:14:46;;;;;;;28.42;14.57;;;10.90;99.90;;;;;;5035897;28;20443;-74
2022/03/23 08:17:12;;;;;;;24.23;14.52;;;11.10;99.90;;;;;;5036188;28;20085;-74
2022/03/23 08:19:38;;;;;;;26.77;16.20;;;11.20;99.90;;;;;;5035814;28;20049;-76
2022/03/23 08:22:04;;;;;;;24.92;14.55;;;11.30;99.90;;;;;;5035706;28;20042;-74
2022/03/23 08:24:30;;;;;;;25.23;14.63;;;11.40;99.90;;;;;;5036098;28;20049;-75
2022/03/23 08:26:55;;;;;;;22.70;14.73;;;11.60;99.90;;;;;;5035343;28;20276;-75
2022/03/23 08:29:21;;;;;;;21.92;15.10;;;11.70;99.90;;;;;;5035626;28;20057;-75
2022/03/23 08:31:47;;;;;;;26.13;15.80;;;11.80;99.90;;;;;;5035420;28;20124;-74
2022/03/23 08:34:13;;;;;;;23.43;15.93;;;12.00;99.90;;;;;;5035549;28;20432;-75
2022/03/23 08:36:39;;;;;;;28.48;14.80;;;12.10;99.90;;;;;;5035393;28;20186;-74
2022/03/23 08:39:05;;;;;;;22.05;14.00;;;12.20;99.90;;;;;;5035606;28;20393;-75
2022/03/23 08:41:31;;;;;;;24.98;14.98;;;12.30;99.90;;;;;;5035267;28;20049;-75
2022/03/23 08:43:57;;;;;;;24.60;13.98;;;12.40;99.90;;;;;;5035476;28;20049;-74
2022/03/23 08:46:23;;;;;;;25.40;14.82;;;12.60;99.90;;;;;;5035233;28;20057;-75
2022/03/23 08:48:49;;;;;;;22.83;13.25;;;12.60;99.80;;;;;;5035258;28;20124;-74
2022/03/23 08:51:16;;;;;;;26.85;15.15;;;12.80;98.70;;;;;;5035217;28;20545;-75
2022/03/23 08:53:42;;;;;;;23.38;15.23;;;12.90;98.40;;;;;;5035374;28;20045;-75
2022/03/23 08:56:09;;;;;;;20.77;13.85;;;13.00;97.60;;;;;;5035142;28;20132;-74
2022/03/23 08:58:35;;;;;;;;;;;13.20;97.40;;;;;;5035314;28;20053;-75
2022/03/23 09:01:00;;;;;;;19.55;13.80;;;13.30;95.70;;;;;;5034683;28;19921;-75
2022/03/23 09:03:26;;;;;;;23.42;13.90;;;13.40;97.20;;;;;;5034923;28;20477;-75
2022/03/23 09:05:52;;;;;;;19.85;14.23;;;13.50;97.20;;;;;;5035263;28;20102;-75
2022/03/23 09:08:18;;;;;;;26.08;13.93;;;13.60;95.50;;;;;;5035011;28;20045;-76
2022/03/23 09:10:43;;;;;;;20.02;13.73;;;13.70;96.30;;;;;;5034644;28;20555;-75
2022/03/23 09:13:09;;;;;;;21.35;14.35;;;13.80;93.40;;;;;;5034765;28;20535;-75
2022/03/23 09:15:35;;;;;;;19.95;13.38;;;13.90;93.70;;;;;;5034677;28;20056;-74
2022/03/23 09:18:02;;;;;;;24.98;13.63;;;14.00;92.10;;;;;;5035051;28;20048;-75
2022/03/23 09:20:30;;;;;;;;;;;14.10;92.10;;;;;;5033949;28;20046;-76
2022/03/23 09:22:57;;;;;;;20.33;12.85;;;14.10;90.30;;;;;;5034831;28;19990;-76
2022/03/23 09:25:24;;;;;;;19.00;12.95;;;14.20;91.30;;;;;;5034412;28;20496;-74
2022/03/23 09:27:50;;;;;;;17.08;12.25;;;14.40;90.40;;;;;;5034454;28;20060;-74
2022/03/23 09:30:17;;;;;;;19.83;12.88;;;14.40;90.60;;;;;;5034427;28;20046;-76
2022/03/23 09:32:44;;;;;;;18.48;12.35;;;14.60;89.80;;;;;;5034323;28;20104;-74
2022/03/23 09:35:10;;;;;;;17.10;12.23;;;14.70;82.90;;;;;;5034339;28;20049;-74
2022/03/23 09:37:48;;;;;;;20.15;11.68;;;14.70;82.60;;;;;;5034214;28;20037;-75
2022/03/23 09:40:27;;;;;;;19.25;11.95;;;14.80;84.90;;;;;;5016226;28;20489;-76
2022/03/23 09:42:55;;;;;;;20.38;12.38;;;14.90;81.80;;;;;;5034083;28;20127;-75
2022/03/23 09:45:36;;;;;;;20.67;12.35;;;15.00;77.90;;;;;;5034330;28;20081;-77
2022/03/23 09:48:09;;;;;;;18.38;12.38;;;15.10;78.90;;;;;;5034238;28;20037;-75
2022/03/23 09:50:38;;;;;;;18.05;12.25;;;15.20;82.00;;;;;;5034015;28;20045;-76
2022/03/23 09:53:04;;;;;;;17.23;12.23;;;15.30;79.20;;;;;;5033869;28;20045;-76
2022/03/23 09:55:30;;;;;;;16.47;12.17;;;15.40;81.50;;;;;;5034291;28;20040;-75
2022/03/23 09:57:58;;;;;;;14.02;11.10;;;15.50;77.70;;;;;;5033893;28;20081;-75
2022/03/23 10:00:27;;;;;;;14.68;11.52;;;15.60;79.30;;;;;;5033761;28;20160;-76
2022/03/23 10:03:11;;;;;;;17.80;11.73;;;15.60;78.30;;;;;;5033879;28;20033;-75
2022/03/23 10:06:08;;;;;;;15.80;10.75;;;15.70;77.10;;;;;;5033629;28;20501;-75
2022/03/23 10:09:10;;;;;;;15.68;11.73;;;15.90;74.50;;;;;;5033815;28;20499;-76
2022/03/23 10:12:12;;;;;;;15.80;11.32;;;15.90;75.50;;;;;;5033939;28;20053;-76
2022/03/23 10:15:06;;;;;;;14.85;11.02;;;16.00;74.20;;;;;;5016308;28;20099;-76
2022/03/23 10:18:09;;;;;;;17.15;11.05;;;16.10;74.60;;;;;;5033584;28;20052;-76
2022/03/23 10:20:36;;;;;;;18.38;11.65;;;16.20;74.80;;;;;;5033579;28;20107;-76
2022/03/23 10:23:05;;;;;;;16.38;11.35;;;16.30;74.60;;;;;;5033607;28;20053;-76
2022/03/23 10:25:31;;;;;;;16.10;12.48;;;16.30;73.20;;;;;;5033632;28;20052;-76
2022/03/23 10:27:57;;;;;;;19.87;11.50;;;16.30;72.70;;;;;;5033527;28;20041;-76
2022/03/23 10:30:37;;;;;;;16.98;12.00;;;16.40;73.80;;;;;;5033265;28;20053;-75
2022/03/23 10:33:14;;;;;;;19.73;12.02;;;16.50;73.20;;;;;;5033546;28;20038;-74
2022/03/23 10:35:40;;;;;;;16.45;11.45;;;16.60;73.00;;;;;;5016422;28;20389;-75
2022/03/23 10:38:14;;;;;;;16.90;11.30;;;16.70;69.70;;;;;;5033831;28;20048;-76
2022/03/23 10:40:41;;;;;;;21.48;11.55;;;16.70;67.20;;;;;;5033487;28;20049;-75
2022/03/23 10:43:08;;;;;;;17.02;11.93;;;16.70;70.30;;;;;;5033492;28;20049;-76
2022/03/23 10:45:34;;;;;;;15.02;11.63;;;16.80;69.20;;;;;;5033369;28;20373;-76
2022/03/23 10:48:16;;;;;;;17.60;12.67;;;16.90;72.20;;;;;;5016708;28;20140;-75
2022/03/23 10:50:52;;;;;;;19.30;11.95;;;16.90;71.40;;;;;;5033820;28;20045;-75
2022/03/23 10:53:34;;;;;;;16.95;11.43;;;17.00;70.80;;;;;;5033546;28;20052;-75
2022/03/23 10:56:01;;;;;;;17.08;11.85;;;17.10;71.90;;;;;;5033100;28;20045;-75
2022/03/23 10:58:28;;;;;;;16.65;11.48;;;17.20;72.20;;;;;;5033287;28;20071;-76
2022/03/23 11:00:54;;;;;;;;;;;17.20;68.90;;;;;;5033714;28;20046;-75
2022/03/23 11:03:34;;;;;;;17.23;10.50;;;17.30;68.50;;;;;;5033506;28;19928;-75
2022/03/23 11:06:00;;;;;;;14.48;10.38;;;17.40;70.20;;;;;;5033314;28;20041;-75
2022/03/23 11:08:26;;;;;;;14.10;11.17;;;17.50;70.40;;;;;;5033090;28;20095;-76
2022/03/23 11:16:29;;;;;;;18.05;9.98;;;17.60;68.10;;;;;;5033232;28;20049;-77
2022/03/23 11:19:05;;;;;;;13.52;9.35;;;17.60;65.20;;;;;;5032831;28;20091;-76
2022/03/23 11:21:31;;;;;;;16.85;10.80;;;17.70;65.60;;;;;;5033158;28;20071;-75
2022/03/23 11:23:56;;;;;;;17.73;11.60;;;17.80;66.70;;;;;;5033104;28;20099;-76
2022/03/23 11:26:23;;;;;;;15.30;10.65;;;17.80;67.00;;;;;;5015638;28;20362;-77
2022/03/23 11:28:49;;;;;;;14.95;11.10;;;17.90;68.50;;;;;;5033090;28;20504;-76
2022/03/23 11:31:19;;;;;;;21.17;11.13;;;17.90;65.90;;;;;;5033088;28;20130;-76
2022/03/23 11:33:49;;;;;;;20.42;10.40;;;18.00;68.20;;;;;;5033449;28;20065;-76
2022/03/23 11:36:17;;;;;;;16.70;10.27;;;18.10;66.90;;;;;;5032980;28;20503;-76
2022/03/23 11:38:43;;;;;;;15.52;9.40;;;18.10;64.20;;;;;;5032812;28;20404;-76
2022/03/23 11:41:10;;;;;;;11.90;8.63;;;18.20;62.80;;;;;;5032925;28;20046;-77
2022/03/23 11:43:37;;;;;;;16.65;8.77;;;18.20;63.50;;;;;;5017352;28;20137;-77
2022/03/23 11:46:08;;;;;;;12.45;7.75;;;18.20;60.90;;;;;;5036297;28;20053;-75
2022/03/23 11:49:09;;;;;;;16.52;9.52;;;18.30;64.10;;;;;;5036342;28;20083;-77
2022/03/23 11:52:13;;;;;;;15.88;9.23;;;18.30;62.30;;;;;;5019007;28;20050;-76
2022/03/23 11:58:01;;;;;;;13.52;7.65;;;18.30;62.10;;;;;;5036368;28;20049;-76
2022/03/23 12:00:28;;;;;;;13.32;7.80;;;18.40;60.60;;;;;;5035862;28;20045;-75
2022/03/23 12:02:55;;;;;;;13.80;8.05;;;18.40;63.60;;;;;;5035769;28;20049;-76
2022/03/23 12:05:35;;;;;;;11.88;7.10;;;18.60;61.20;;;;;;5035886;28;20454;-74
2022/03/23 12:08:01;;;;;;;13.38;7.80;;;18.50;61.10;;;;;;5036299;28;20092;-75
2022/03/23 12:10:29;;;;;;;20.15;8.48;;;18.50;62.20;;;;;;5035956;28;20047;-76
2022/03/23 12:12:55;;;;;;;15.93;7.80;;;18.60;61.80;;;;;;5035814;28;20049;-75
2022/03/23 12:15:23;;;;;;;18.73;8.07;;;18.70;62.00;;;;;;5035507;28;20071;-74
2022/03/23 12:17:58;;;;;;;19.67;8.27;;;18.70;62.70;;;;;;5035779;28;20366;-76
2022/03/23 12:20:41;;;;;;;15.30;7.22;;;18.80;62.80;;;;;;5035756;28;20128;-75
2022/03/23 12:23:44;;;;;;;13.88;6.95;;;18.80;61.60;;;;;;5035818;28;20049;-76
2022/03/23 12:26:21;;;;;;;13.90;7.38;;;18.80;59.80;;;;;;5035300;28;20493;-75
2022/03/23 12:29:00;;;;;;;20.90;8.45;;;18.80;60.00;;;;;;5035648;28;20057;-75
2022/03/23 12:31:36;;;;;;;13.25;7.72;;;18.80;62.20;;;;;;5035637;28;20053;-75
2022/03/23 12:34:11;;;;;;;14.00;7.90;;;18.90;62.40;;;;;;5035585;28;20124;-75
2022/03/23 12:36:59;;;;;;;17.30;8.65;;;18.90;62.00;;;;;;5035506;28;20049;-75
2022/03/23 12:39:29;;;;;;;16.52;8.52;;;18.90;59.70;;;;;;5035556;28;20048;-75
2022/03/23 12:41:57;;;;;;;15.57;7.53;;;18.90;61.20;;;;;;5035409;28;20041;-76
2022/03/23 12:44:33;;;;;;;14.15;8.52;;;18.90;59.80;;;;;;5035324;28;20053;-75
2022/03/23 12:47:20;;;;;;;14.48;8.95;;;18.90;60.20;;;;;;5035294;28;20046;-76
2022/03/23 12:58:24;;;;;;;19.67;8.77;;;19.10;61.60;;;;;;5035179;28;20132;-76
2022/03/23 13:00:52;;;;;;;19.17;9.23;;;19.20;60.00;;;;;;5035011;28;20052;-77
2022/03/23 13:03:41;;;;;;;13.23;8.27;;;19.20;62.00;;;;;;5034652;28;20099;-78
2022/03/23 13:06:09;;;;;;;19.85;9.30;;;19.20;59.00;;;;;;5034701;28;20053;-77
2022/03/23 13:08:47;;;;;;;14.60;8.73;;;19.20;60.30;;;;;;5034486;28;20045;-77
2022/03/23 13:11:14;;;;;;;16.75;8.65;;;19.20;62.20;;;;;;5034950;28;20094;-76
2022/03/23 13:13:41;;;;;;;16.80;9.65;;;19.30;61.90;;;;;;5034872;28;20508;-77